29TE weather

Pearland Heliport
Pearland, Texas, United States

Public forecast

Using degrees Fahrenheit for public forecast. Weather courtesy of forecast.io.

Closest aviation weather report (METAR) to Pearland Heliport

Closest report is Pearland Regional Airport, 3.0 nm (5.6 km) SE. Retrieved 2020/07/07 21:53 UTC (43 minutes ago):

KLVJ 072153Z AUTO 20007KT 8SM CLR 33/21 A2995 RMK AO2 SLP140 T03330211

Closest aviation forecast (TAF) to Pearland Heliport

Closest forecast is William P Hobby Airport, 5.2 nm (9.7 km) N. Retrieved 2020/07/07 18:28 UTC (4 hours ago):

TAF KHOU 071726Z 0718/0818 19008KT P6SM SCT035 BKN050 FM072200 18007KT P6SM SCT050 BKN150 FM080600 VRB04KT P6SM SCT024 BKN045 FM081200 VRB03KT P6SM SCT020 BKN120 FM081400 19006KT P6SM FEW035 SCT100